SCX3043 KRIC-KCVG
Flight info
| Callsign | SCX3043 |
|---|---|
| Flight time | 1h 17m |
| Altitude | 28000 |
| Route | KALLI7 READE MOL FAIIR GAVNN8 |
| Aircraft | B738/M-SDE2E3FGHIRWXY/LB1 |
Departure
| Time | 2026-04-22 01:42 |
|---|---|
| Airport | Richmond International Airport (KRIC) |
Arrival
| Time | 2026-04-22 02:59 |
|---|---|
| Airport | Cincinnati Northern Kentucky International Airport (KCVG) |
| Time | Latitude | Longitude | Altitude | Speed | Heading |
|---|---|---|---|---|---|
| 2026-04-22 01:28 | 37.50162 | -77.33383 | 165 ft | 0 kts | 279° |
| 2026-04-22 01:36 | 37.50154 | -77.33389 | 166 ft | 4 kts | 197° |
| 2026-04-22 01:37 | 37.50142 | -77.33375 | 166 ft | 2 kts | 92° |
| 2026-04-22 01:37 | 37.50139 | -77.33303 | 164 ft | 14 kts | 93° |
| 2026-04-22 01:37 | 37.50132 | -77.33236 | 162 ft | 0 kts | 104° |
| 2026-04-22 01:38 | 37.50126 | -77.33205 | 162 ft | 12 kts | 104° |
| 2026-04-22 01:38 | 37.50163 | -77.33120 | 164 ft | 13 kts | 15° |
| 2026-04-22 01:38 | 37.50253 | -77.33091 | 166 ft | 17 kts | 14° |
| 2026-04-22 01:39 | 37.50391 | -77.33047 | 167 ft | 22 kts | 14° |
| 2026-04-22 01:39 | 37.50545 | -77.32997 | 171 ft | 23 kts | 14° |
| 2026-04-22 01:39 | 37.50696 | -77.32953 | 171 ft | 22 kts | 13° |
| 2026-04-22 01:39 | 37.50853 | -77.32904 | 171 ft | 30 kts | 13° |
| 2026-04-22 01:40 | 37.51069 | -77.32840 | 169 ft | 28 kts | 13° |
| 2026-04-22 01:40 | 37.51194 | -77.32802 | 171 ft | 27 kts | 13° |
| 2026-04-22 01:40 | 37.51373 | -77.32749 | 170 ft | 25 kts | 13° |
| 2026-04-22 01:40 | 37.51540 | -77.32698 | 171 ft | 25 kts | 13° |
| 2026-04-22 01:41 | 37.51640 | -77.32584 | 171 ft | 22 kts | 91° |
| 2026-04-22 01:41 | 37.51629 | -77.32395 | 175 ft | 19 kts | 98° |
| 2026-04-22 01:41 | 37.51543 | -77.32260 | 175 ft | 33 kts | 148° |
| 2026-04-22 01:41 | 37.51075 | -77.31886 | 169 ft | 125 kts | 147° |
| 2026-04-22 01:42 | 37.50151 | -77.31141 | 467 ft | 179 kts | 148° |
| 2026-04-22 01:42 | 37.49066 | -77.30366 | 1708 ft | 171 kts | 166° |
| 2026-04-22 01:42 | 37.47827 | -77.30323 | 2491 ft | 191 kts | 200° |
| 2026-04-22 01:42 | 37.46728 | -77.31397 | 2841 ft | 215 kts | 237° |
| 2026-04-22 01:43 | 37.46345 | -77.33262 | 3452 ft | 235 kts | 266° |
| 2026-04-22 01:43 | 37.46410 | -77.35398 | 4150 ft | 250 kts | 271° |
| 2026-04-22 01:43 | 37.46536 | -77.37606 | 5125 ft | 254 kts | 275° |
| 2026-04-22 01:43 | 37.46676 | -77.39815 | 6263 ft | 252 kts | 276° |
| 2026-04-22 01:44 | 37.46792 | -77.42009 | 7342 ft | 252 kts | 276° |
| 2026-04-22 01:44 | 37.46876 | -77.44244 | 8174 ft | 259 kts | 276° |
| 2026-04-22 01:44 | 37.46939 | -77.46535 | 9071 ft | 264 kts | 276° |
| 2026-04-22 01:44 | 37.47000 | -77.48860 | 10039 ft | 267 kts | 277° |
| 2026-04-22 01:45 | 37.47071 | -77.51257 | 10622 ft | 284 kts | 277° |
| 2026-04-22 01:45 | 37.47156 | -77.53868 | 10820 ft | 312 kts | 277° |
| 2026-04-22 01:45 | 37.47200 | -77.56720 | 11025 ft | 340 kts | 272° |
| 2026-04-22 01:45 | 37.46986 | -77.59753 | 11533 ft | 354 kts | 268° |
| 2026-04-22 01:46 | 37.46709 | -77.62856 | 12261 ft | 359 kts | 267° |
| 2026-04-22 01:46 | 37.46317 | -77.65980 | 13053 ft | 366 kts | 259° |
| 2026-04-22 01:46 | 37.45558 | -77.69016 | 13850 ft | 371 kts | 255° |
| 2026-04-22 01:46 | 37.44699 | -77.72100 | 14568 ft | 375 kts | 254° |
| 2026-04-22 01:47 | 37.43824 | -77.75203 | 15313 ft | 378 kts | 254° |
| 2026-04-22 01:47 | 37.42949 | -77.78336 | 16050 ft | 381 kts | 254° |
| 2026-04-22 01:47 | 37.42081 | -77.81491 | 16761 ft | 384 kts | 254° |
| 2026-04-22 01:47 | 37.41215 | -77.84682 | 17473 ft | 387 kts | 254° |
| 2026-04-22 01:48 | 37.40349 | -77.87895 | 18170 ft | 390 kts | 255° |
| 2026-04-22 01:48 | 37.39686 | -77.91199 | 18794 ft | 390 kts | 266° |
| 2026-04-22 01:48 | 37.39694 | -77.94586 | 19402 ft | 388 kts | 279° |
| 2026-04-22 01:48 | 37.40248 | -77.97898 | 19994 ft | 388 kts | 288° |
| 2026-04-22 01:49 | 37.41039 | -78.01158 | 20567 ft | 391 kts | 288° |
| 2026-04-22 01:49 | 37.41841 | -78.04437 | 21148 ft | 394 kts | 288° |
| 2026-04-22 01:49 | 37.42645 | -78.07739 | 21740 ft | 396 kts | 288° |
| 2026-04-22 01:49 | 37.43446 | -78.11054 | 22308 ft | 398 kts | 288° |
| 2026-04-22 01:50 | 37.44246 | -78.14398 | 22847 ft | 400 kts | 288° |
| 2026-04-22 01:50 | 37.45046 | -78.17764 | 23389 ft | 403 kts | 288° |
| 2026-04-22 01:50 | 37.45849 | -78.21159 | 23912 ft | 405 kts | 288° |
| 2026-04-22 01:50 | 37.46651 | -78.24563 | 24348 ft | 407 kts | 288° |
| 2026-04-22 01:51 | 37.47454 | -78.27983 | 24805 ft | 408 kts | 288° |
| 2026-04-22 01:51 | 37.48258 | -78.31415 | 25244 ft | 410 kts | 288° |
| 2026-04-22 01:51 | 37.49064 | -78.34862 | 25671 ft | 411 kts | 288° |
| 2026-04-22 01:51 | 37.49874 | -78.38326 | 26079 ft | 413 kts | 288° |
| 2026-04-22 01:52 | 37.50685 | -78.41806 | 26473 ft | 414 kts | 288° |
| 2026-04-22 01:52 | 37.51497 | -78.45290 | 26875 ft | 416 kts | 288° |
| 2026-04-22 01:52 | 37.52311 | -78.48791 | 27262 ft | 417 kts | 288° |
| 2026-04-22 01:52 | 37.53128 | -78.52308 | 27633 ft | 419 kts | 288° |
| 2026-04-22 01:53 | 37.53947 | -78.55836 | 27992 ft | 421 kts | 288° |
| 2026-04-22 01:53 | 37.54768 | -78.59384 | 28238 ft | 423 kts | 288° |
| 2026-04-22 01:53 | 37.56420 | -78.66533 | 28226 ft | 423 kts | 288° |
| 2026-04-22 01:54 | 37.58046 | -78.73595 | 28217 ft | 423 kts | 288° |
| 2026-04-22 01:54 | 37.59684 | -78.80728 | 28222 ft | 424 kts | 288° |
| 2026-04-22 01:55 | 37.61322 | -78.87879 | 28215 ft | 425 kts | 288° |
| 2026-04-22 01:55 | 37.62958 | -78.95049 | 28218 ft | 426 kts | 288° |
| 2026-04-22 01:56 | 37.64593 | -79.02235 | 28223 ft | 426 kts | 288° |
| 2026-04-22 01:56 | 37.66223 | -79.09420 | 28215 ft | 426 kts | 287° |
| 2026-04-22 01:57 | 37.67847 | -79.16600 | 28141 ft | 425 kts | 287° |
| 2026-04-22 01:57 | 37.69462 | -79.23768 | 28067 ft | 425 kts | 287° |
| 2026-04-22 01:58 | 37.71075 | -79.30946 | 27989 ft | 425 kts | 287° |
| 2026-04-22 01:58 | 37.71881 | -79.34541 | 27957 ft | 425 kts | 287° |
| 2026-04-22 01:58 | 37.72685 | -79.38133 | 27919 ft | 426 kts | 287° |
| 2026-04-22 01:59 | 37.73490 | -79.41736 | 27891 ft | 426 kts | 287° |
| 2026-04-22 01:59 | 37.74294 | -79.45335 | 27864 ft | 426 kts | 287° |
| 2026-04-22 01:59 | 37.75096 | -79.48935 | 27862 ft | 426 kts | 287° |
| 2026-04-22 01:59 | 37.75898 | -79.52544 | 27856 ft | 426 kts | 287° |
| 2026-04-22 02:00 | 37.76700 | -79.56151 | 27872 ft | 427 kts | 287° |
| 2026-04-22 02:00 | 37.77463 | -79.59593 | 27881 ft | 427 kts | 287° |
| 2026-04-22 02:00 | 37.78246 | -79.63132 | 27895 ft | 418 kts | 287° |
| 2026-04-22 02:00 | 37.79020 | -79.66637 | 27931 ft | 412 kts | 287° |
| 2026-04-22 02:01 | 37.79787 | -79.70114 | 28239 ft | 410 kts | 287° |
| 2026-04-22 02:01 | 37.80553 | -79.73590 | 28259 ft | 411 kts | 287° |
| 2026-04-22 02:01 | 37.82086 | -79.80558 | 28240 ft | 412 kts | 286° |
| 2026-04-22 02:02 | 37.83619 | -79.87549 | 28233 ft | 413 kts | 286° |
| 2026-04-22 02:02 | 37.85146 | -79.94544 | 28260 ft | 412 kts | 286° |
| 2026-04-22 02:03 | 37.86673 | -80.01551 | 28249 ft | 414 kts | 286° |
| 2026-04-22 02:03 | 37.88200 | -80.08584 | 28240 ft | 414 kts | 286° |
| 2026-04-22 02:04 | 37.90486 | -80.19153 | 28222 ft | 414 kts | 286° |
| 2026-04-22 02:05 | 37.92001 | -80.26185 | 28221 ft | 413 kts | 286° |
| 2026-04-22 02:05 | 37.93505 | -80.33193 | 28205 ft | 412 kts | 286° |
| 2026-04-22 02:06 | 37.94999 | -80.40172 | 28220 ft | 410 kts | 286° |
| 2026-04-22 02:06 | 37.96483 | -80.47125 | 28221 ft | 409 kts | 286° |
| 2026-04-22 02:07 | 37.97963 | -80.54083 | 28203 ft | 409 kts | 286° |
| 2026-04-22 02:07 | 37.99438 | -80.61039 | 28201 ft | 409 kts | 286° |
| 2026-04-22 02:08 | 38.00909 | -80.68003 | 28171 ft | 408 kts | 286° |
| 2026-04-22 02:08 | 38.02374 | -80.74952 | 28186 ft | 408 kts | 286° |
| 2026-04-22 02:09 | 38.03836 | -80.81916 | 28166 ft | 408 kts | 286° |
| 2026-04-22 02:09 | 38.05283 | -80.88826 | 28165 ft | 408 kts | 286° |
| 2026-04-22 02:10 | 38.06737 | -80.95798 | 28157 ft | 408 kts | 286° |
| 2026-04-22 02:10 | 38.08186 | -81.02764 | 28163 ft | 409 kts | 285° |
| 2026-04-22 02:11 | 38.09634 | -81.09747 | 28153 ft | 409 kts | 285° |
| 2026-04-22 02:11 | 38.11079 | -81.16739 | 28148 ft | 410 kts | 285° |
| 2026-04-22 02:12 | 38.12520 | -81.23738 | 28144 ft | 410 kts | 285° |
| 2026-04-22 02:12 | 38.13959 | -81.30748 | 28136 ft | 410 kts | 285° |
| 2026-04-22 02:13 | 38.15393 | -81.37754 | 28144 ft | 410 kts | 285° |
| 2026-04-22 02:13 | 38.16825 | -81.44775 | 28142 ft | 411 kts | 285° |
| 2026-04-22 02:14 | 38.18256 | -81.51810 | 28128 ft | 411 kts | 285° |
| 2026-04-22 02:14 | 38.19683 | -81.58857 | 28146 ft | 412 kts | 285° |
| 2026-04-22 02:15 | 38.21109 | -81.65920 | 28128 ft | 412 kts | 285° |
| 2026-04-22 02:15 | 38.22530 | -81.72985 | 28139 ft | 412 kts | 285° |
| 2026-04-22 02:16 | 38.23948 | -81.80054 | 28144 ft | 412 kts | 285° |
| 2026-04-22 02:16 | 38.25361 | -81.87121 | 28135 ft | 413 kts | 285° |
| 2026-04-22 02:17 | 38.26770 | -81.94196 | 28134 ft | 412 kts | 285° |
| 2026-04-22 02:17 | 38.28175 | -82.01272 | 28130 ft | 412 kts | 285° |
| 2026-04-22 02:18 | 38.29575 | -82.08348 | 28124 ft | 412 kts | 285° |
| 2026-04-22 02:18 | 38.30968 | -82.15416 | 28127 ft | 412 kts | 285° |
| 2026-04-22 02:19 | 38.32358 | -82.22488 | 28126 ft | 412 kts | 285° |
| 2026-04-22 02:19 | 38.33736 | -82.29522 | 28120 ft | 412 kts | 285° |
| 2026-04-22 02:20 | 38.35118 | -82.36604 | 28125 ft | 412 kts | 285° |
| 2026-04-22 02:20 | 38.36495 | -82.43685 | 28116 ft | 412 kts | 285° |
| 2026-04-22 02:21 | 38.37868 | -82.50773 | 28146 ft | 412 kts | 285° |
| 2026-04-22 02:21 | 38.39240 | -82.57875 | 28149 ft | 413 kts | 285° |
| 2026-04-22 02:22 | 38.40609 | -82.64989 | 28153 ft | 413 kts | 285° |
| 2026-04-22 02:22 | 38.41975 | -82.72112 | 28142 ft | 414 kts | 284° |
| 2026-04-22 02:23 | 38.43338 | -82.79249 | 28141 ft | 414 kts | 284° |
| 2026-04-22 02:23 | 38.44698 | -82.86386 | 28145 ft | 414 kts | 284° |
| 2026-04-22 02:24 | 38.46028 | -82.93539 | 28138 ft | 415 kts | 283° |
| 2026-04-22 02:24 | 38.47174 | -83.00752 | 28140 ft | 415 kts | 282° |
| 2026-04-22 02:25 | 38.48289 | -83.07984 | 28134 ft | 415 kts | 282° |
| 2026-04-22 02:25 | 38.49413 | -83.15168 | 28126 ft | 415 kts | 282° |
| 2026-04-22 02:26 | 38.50552 | -83.22402 | 27784 ft | 417 kts | 282° |
| 2026-04-22 02:26 | 38.51116 | -83.25995 | 27285 ft | 409 kts | 282° |
| 2026-04-22 02:26 | 38.51670 | -83.29528 | 26754 ft | 403 kts | 282° |
| 2026-04-22 02:26 | 38.52215 | -83.33015 | 26166 ft | 398 kts | 282° |
| 2026-04-22 02:27 | 38.52753 | -83.36459 | 25600 ft | 393 kts | 282° |
| 2026-04-22 02:27 | 38.53113 | -83.38766 | 25223 ft | 390 kts | 282° |
| 2026-04-22 02:27 | 38.53640 | -83.42151 | 24668 ft | 387 kts | 282° |
| 2026-04-22 02:27 | 38.54161 | -83.45508 | 24130 ft | 384 kts | 282° |
| 2026-04-22 02:28 | 38.54675 | -83.48804 | 23438 ft | 384 kts | 282° |
| 2026-04-22 02:28 | 38.55199 | -83.52136 | 22812 ft | 381 kts | 282° |
| 2026-04-22 02:28 | 38.55718 | -83.55439 | 22220 ft | 377 kts | 282° |
| 2026-04-22 02:28 | 38.56229 | -83.58701 | 21682 ft | 373 kts | 282° |
| 2026-04-22 02:29 | 38.56735 | -83.61933 | 21138 ft | 369 kts | 282° |
| 2026-04-22 02:29 | 38.57235 | -83.65134 | 20602 ft | 366 kts | 282° |
| 2026-04-22 02:29 | 38.57729 | -83.68308 | 20073 ft | 363 kts | 282° |
| 2026-04-22 02:29 | 38.58220 | -83.71462 | 19544 ft | 361 kts | 282° |
| 2026-04-22 02:30 | 38.58707 | -83.74600 | 19016 ft | 359 kts | 282° |
| 2026-04-22 02:30 | 38.59190 | -83.77720 | 18510 ft | 357 kts | 282° |
| 2026-04-22 02:30 | 38.59646 | -83.80670 | 17932 ft | 356 kts | 282° |
| 2026-04-22 02:30 | 38.60124 | -83.83763 | 17345 ft | 355 kts | 282° |
| 2026-04-22 02:31 | 38.60600 | -83.86856 | 16765 ft | 353 kts | 282° |
| 2026-04-22 02:31 | 38.61071 | -83.89922 | 16230 ft | 350 kts | 282° |
| 2026-04-22 02:31 | 38.61701 | -83.92903 | 15684 ft | 347 kts | 294° |
| 2026-04-22 02:31 | 38.62954 | -83.95535 | 15093 ft | 346 kts | 304° |
| 2026-04-22 02:32 | 38.64327 | -83.98051 | 14572 ft | 344 kts | 304° |
| 2026-04-22 02:32 | 38.65676 | -84.00569 | 14057 ft | 342 kts | 304° |
| 2026-04-22 02:32 | 38.67001 | -84.03082 | 13504 ft | 339 kts | 303° |
| 2026-04-22 02:32 | 38.68305 | -84.05583 | 12963 ft | 336 kts | 303° |
| 2026-04-22 02:33 | 38.69590 | -84.08056 | 12475 ft | 332 kts | 303° |
| 2026-04-22 02:33 | 38.70864 | -84.10510 | 11977 ft | 329 kts | 303° |
| 2026-04-22 02:33 | 38.72126 | -84.12940 | 11482 ft | 326 kts | 302° |
| 2026-04-22 02:33 | 38.73360 | -84.15323 | 11353 ft | 312 kts | 302° |
| 2026-04-22 02:34 | 38.74534 | -84.17596 | 11212 ft | 301 kts | 302° |
| 2026-04-22 02:34 | 38.75666 | -84.19788 | 11101 ft | 290 kts | 302° |
| 2026-04-22 02:34 | 38.76758 | -84.21904 | 10985 ft | 279 kts | 302° |
| 2026-04-22 02:34 | 38.77809 | -84.23944 | 10876 ft | 269 kts | 302° |
| 2026-04-22 02:35 | 38.78823 | -84.25912 | 10716 ft | 262 kts | 302° |
| 2026-04-22 02:35 | 38.79825 | -84.27856 | 10448 ft | 260 kts | 302° |
| 2026-04-22 02:35 | 38.80819 | -84.29784 | 10191 ft | 257 kts | 302° |
| 2026-04-22 02:35 | 38.81785 | -84.31661 | 10080 ft | 249 kts | 302° |
| 2026-04-22 02:36 | 38.82728 | -84.33490 | 9885 ft | 244 kts | 302° |
| 2026-04-22 02:36 | 38.83660 | -84.35304 | 9624 ft | 243 kts | 301° |
| 2026-04-22 02:36 | 38.84587 | -84.37107 | 9334 ft | 241 kts | 301° |
| 2026-04-22 02:36 | 38.85508 | -84.38900 | 9070 ft | 240 kts | 301° |
| 2026-04-22 02:37 | 38.86369 | -84.40576 | 8969 ft | 232 kts | 301° |
| 2026-04-22 02:37 | 38.87248 | -84.42287 | 8857 ft | 229 kts | 300° |
| 2026-04-22 02:37 | 38.88140 | -84.44029 | 8631 ft | 240 kts | 301° |
| 2026-04-22 02:37 | 38.89068 | -84.45840 | 8368 ft | 244 kts | 300° |
| 2026-04-22 02:38 | 38.89995 | -84.47648 | 8109 ft | 240 kts | 300° |
| 2026-04-22 02:38 | 38.90888 | -84.49387 | 7840 ft | 233 kts | 300° |
| 2026-04-22 02:38 | 38.91770 | -84.51106 | 7558 ft | 227 kts | 299° |
| 2026-04-22 02:38 | 38.92722 | -84.52706 | 7271 ft | 229 kts | 314° |
| 2026-04-22 02:39 | 38.94149 | -84.53661 | 7000 ft | 237 kts | 336° |
| 2026-04-22 02:39 | 38.95828 | -84.53885 | 6749 ft | 250 kts | 353° |
| 2026-04-22 02:39 | 38.97582 | -84.53747 | 6501 ft | 254 kts | 355° |
| 2026-04-22 02:39 | 38.99355 | -84.53566 | 6218 ft | 257 kts | 356° |
| 2026-04-22 02:40 | 39.01129 | -84.53418 | 5957 ft | 254 kts | 352° |
| 2026-04-22 02:40 | 39.02898 | -84.53410 | 5671 ft | 253 kts | 350° |
| 2026-04-22 02:40 | 39.04663 | -84.53420 | 5382 ft | 256 kts | 349° |
| 2026-04-22 02:40 | 39.06426 | -84.53617 | 5035 ft | 255 kts | 344° |
| 2026-04-22 02:41 | 39.08254 | -84.53454 | 4680 ft | 271 kts | 2° |
| 2026-04-22 02:41 | 39.10099 | -84.53017 | 4318 ft | 269 kts | 1° |
| 2026-04-22 02:41 | 39.11920 | -84.52599 | 4045 ft | 259 kts | 0° |
| 2026-04-22 02:41 | 39.13631 | -84.52212 | 3990 ft | 241 kts | 0° |
| 2026-04-22 02:42 | 39.15243 | -84.51843 | 3978 ft | 231 kts | 359° |
| 2026-04-22 02:42 | 39.16769 | -84.51925 | 3976 ft | 212 kts | 334° |
| 2026-04-22 02:42 | 39.18211 | -84.52378 | 3970 ft | 214 kts | 335° |
| 2026-04-22 02:42 | 39.19663 | -84.52783 | 3887 ft | 214 kts | 334° |
| 2026-04-22 02:43 | 39.20899 | -84.53623 | 3694 ft | 190 kts | 302° |
| 2026-04-22 02:43 | 39.21537 | -84.55006 | 3545 ft | 175 kts | 281° |
| 2026-04-22 02:43 | 39.21686 | -84.56527 | 3396 ft | 170 kts | 265° |
| 2026-04-22 02:43 | 39.21692 | -84.58051 | 3243 ft | 170 kts | 265° |
| 2026-04-22 02:44 | 39.21701 | -84.59573 | 3097 ft | 168 kts | 265° |
| 2026-04-22 02:44 | 39.21708 | -84.61072 | 3032 ft | 169 kts | 265° |
| 2026-04-22 02:44 | 39.21518 | -84.62568 | 2982 ft | 170 kts | 239° |
| 2026-04-22 02:44 | 39.20559 | -84.63419 | 2999 ft | 171 kts | 206° |
| 2026-04-22 02:45 | 39.19500 | -84.63874 | 2990 ft | 156 kts | 211° |
| 2026-04-22 02:45 | 39.18469 | -84.64272 | 3002 ft | 153 kts | 200° |
| 2026-04-22 02:45 | 39.17435 | -84.64443 | 3011 ft | 151 kts | 200° |
| 2026-04-22 02:45 | 39.16357 | -84.64573 | 2961 ft | 155 kts | 197° |
| 2026-04-22 02:46 | 39.15288 | -84.64615 | 2802 ft | 156 kts | 194° |
| 2026-04-22 02:46 | 39.14233 | -84.64620 | 2587 ft | 141 kts | 195° |
| 2026-04-22 02:46 | 39.13323 | -84.64625 | 2421 ft | 128 kts | 194° |
| 2026-04-22 02:46 | 39.12444 | -84.64633 | 2276 ft | 124 kts | 194° |
| 2026-04-22 02:47 | 39.11589 | -84.64637 | 2112 ft | 123 kts | 194° |
| 2026-04-22 02:47 | 39.10678 | -84.64644 | 1940 ft | 134 kts | 192° |
| 2026-04-22 02:47 | 39.09790 | -84.64726 | 1790 ft | 122 kts | 197° |
| 2026-04-22 02:47 | 39.08881 | -84.64581 | 1581 ft | 138 kts | 174° |
| 2026-04-22 02:48 | 39.07935 | -84.64480 | 1749 ft | 140 kts | 186° |
| 2026-04-22 02:48 | 39.06903 | -84.64394 | 2170 ft | 158 kts | 191° |
| 2026-04-22 02:48 | 39.05791 | -84.64211 | 3044 ft | 168 kts | 183° |
| 2026-04-22 02:48 | 39.04597 | -84.63916 | 3155 ft | 177 kts | 182° |
| 2026-04-22 02:49 | 39.03246 | -84.63625 | 3071 ft | 216 kts | 182° |
| 2026-04-22 02:49 | 39.01730 | -84.63001 | 2999 ft | 245 kts | 158° |
| 2026-04-22 02:49 | 39.00521 | -84.61341 | 2987 ft | 268 kts | 126° |
| 2026-04-22 02:49 | 39.00023 | -84.58973 | 2989 ft | 284 kts | 95° |
| 2026-04-22 02:50 | 39.00186 | -84.56415 | 3012 ft | 289 kts | 85° |
| 2026-04-22 02:50 | 39.00480 | -84.53862 | 2986 ft | 289 kts | 79° |
| 2026-04-22 02:50 | 39.01299 | -84.51527 | 3008 ft | 287 kts | 49° |
| 2026-04-22 02:50 | 39.02799 | -84.49920 | 2995 ft | 276 kts | 17° |
| 2026-04-22 02:51 | 39.04591 | -84.49347 | 3009 ft | 261 kts | 356° |
| 2026-04-22 02:51 | 39.06385 | -84.49273 | 3000 ft | 255 kts | 346° |
| 2026-04-22 02:51 | 39.08143 | -84.49464 | 3017 ft | 254 kts | 344° |
| 2026-04-22 02:51 | 39.09912 | -84.49683 | 3008 ft | 255 kts | 344° |
| 2026-04-22 02:52 | 39.11686 | -84.49898 | 3005 ft | 256 kts | 344° |
| 2026-04-22 02:52 | 39.13463 | -84.50128 | 2985 ft | 257 kts | 344° |
| 2026-04-22 02:52 | 39.15236 | -84.50366 | 3003 ft | 256 kts | 344° |
| 2026-04-22 02:52 | 39.16983 | -84.50608 | 3015 ft | 257 kts | 343° |
| 2026-04-22 02:53 | 39.18662 | -84.51148 | 2986 ft | 237 kts | 321° |
| 2026-04-22 02:53 | 39.20013 | -84.52251 | 3005 ft | 225 kts | 314° |
| 2026-04-22 02:53 | 39.21041 | -84.53647 | 2989 ft | 206 kts | 287° |
| 2026-04-22 02:53 | 39.21292 | -84.55376 | 3014 ft | 192 kts | 266° |
| 2026-04-22 02:54 | 39.21263 | -84.57109 | 3012 ft | 196 kts | 264° |
| 2026-04-22 02:54 | 39.21209 | -84.58885 | 3010 ft | 201 kts | 264° |
| 2026-04-22 02:54 | 39.21158 | -84.60682 | 2831 ft | 198 kts | 264° |
| 2026-04-22 02:54 | 39.20894 | -84.62338 | 2609 ft | 184 kts | 238° |
| 2026-04-22 02:55 | 39.19901 | -84.63254 | 2545 ft | 173 kts | 208° |
| 2026-04-22 02:55 | 39.18818 | -84.63769 | 2500 ft | 159 kts | 210° |
| 2026-04-22 02:55 | 39.17776 | -84.64185 | 2483 ft | 152 kts | 201° |
| 2026-04-22 02:55 | 39.16785 | -84.64374 | 2495 ft | 144 kts | 200° |
| 2026-04-22 02:56 | 39.15763 | -84.64531 | 2511 ft | 151 kts | 198° |
| 2026-04-22 02:56 | 39.14694 | -84.64610 | 2509 ft | 156 kts | 195° |
| 2026-04-22 02:56 | 39.13603 | -84.64630 | 2453 ft | 157 kts | 194° |
| 2026-04-22 02:56 | 39.12532 | -84.64635 | 2269 ft | 146 kts | 192° |
| 2026-04-22 02:57 | 39.11588 | -84.64633 | 2096 ft | 129 kts | 193° |
| 2026-04-22 02:57 | 39.10663 | -84.64643 | 1930 ft | 132 kts | 193° |
| 2026-04-22 02:57 | 39.09773 | -84.64710 | 1749 ft | 123 kts | 195° |
| 2026-04-22 02:57 | 39.08865 | -84.64735 | 1551 ft | 136 kts | 183° |
| 2026-04-22 02:58 | 39.07918 | -84.64694 | 1369 ft | 135 kts | 179° |
| 2026-04-22 02:58 | 39.06972 | -84.64666 | 1202 ft | 137 kts | 183° |
| 2026-04-22 02:58 | 39.06014 | -84.64669 | 1018 ft | 145 kts | 181° |
| 2026-04-22 02:58 | 39.05022 | -84.64669 | 873 ft | 133 kts | 181° |
| 2026-04-22 02:59 | 39.04205 | -84.64674 | 870 ft | 88 kts | 180° |
| 2026-04-22 02:59 | 39.03775 | -84.64678 | 873 ft | 43 kts | 180° |
| 2026-04-22 02:59 | 39.03567 | -84.64691 | 878 ft | 18 kts | 187° |
| 2026-04-22 02:59 | 39.03466 | -84.64758 | 878 ft | 8 kts | 224° |
| 2026-04-22 03:00 | 39.03437 | -84.64812 | 880 ft | 8 kts | 257° |
| 2026-04-22 03:00 | 39.03472 | -84.64887 | 882 ft | 17 kts | 348° |
| 2026-04-22 03:00 | 39.03575 | -84.64921 | 880 ft | 13 kts | 288° |
| 2026-04-22 03:00 | 39.03574 | -84.65063 | 883 ft | 18 kts | 269° |
| 2026-04-22 03:01 | 39.03573 | -84.65225 | 886 ft | 18 kts | 270° |
| 2026-04-22 03:01 | 39.03569 | -84.65264 | 887 ft | 2 kts | 235° |
| 2026-04-22 03:01 | 39.03508 | -84.65312 | 887 ft | 13 kts | 211° |
| 2026-04-22 03:01 | 39.03461 | -84.65348 | 887 ft | 8 kts | 211° |
| 2026-04-22 03:02 | 39.03415 | -84.65385 | 888 ft | 8 kts | 219° |
| 2026-04-22 03:02 | 39.03395 | -84.65450 | 889 ft | 8 kts | 268° |
| 2026-04-22 03:02 | 39.03395 | -84.65460 | 889 ft | 0 kts | 269° |